sensor_id;sensor_type;location;lat;lon;timestamp;pressure;altitude;pressure_sealevel;temperature;humidity
77737;BME280;66903;59.926;30.404;2023-12-22T00:03:10;98157.66;;;24.72;29.75
77737;BME280;66903;59.926;30.404;2023-12-22T00:08:21;98158.13;;;24.74;30.08
77737;BME280;66903;59.926;30.404;2023-12-22T00:13:34;98142.22;;;24.73;30.14
77737;BME280;66903;59.926;30.404;2023-12-22T00:18:44;98140.63;;;24.76;30.22
77737;BME280;66903;59.926;30.404;2023-12-22T00:23:55;98128.09;;;24.80;29.83
77737;BME280;66903;59.926;30.404;2023-12-22T00:29:07;98138.38;;;24.85;29.74
77737;BME280;66903;59.926;30.404;2023-12-22T00:34:18;98135.16;;;24.86;29.75
77737;BME280;66903;59.926;30.404;2023-12-22T00:39:30;98140.03;;;24.86;29.55
77737;BME280;66903;59.926;30.404;2023-12-22T00:44:41;98113.91;;;24.84;29.91
77737;BME280;66903;59.926;30.404;2023-12-22T00:49:52;98116.09;;;24.90;29.50
77737;BME280;66903;59.926;30.404;2023-12-22T00:55:03;98107.97;;;24.92;29.43
77737;BME280;66903;59.926;30.404;2023-12-22T01:00:15;98084.75;;;24.94;29.45
77737;BME280;66903;59.926;30.404;2023-12-22T01:05:25;98074.97;;;24.95;29.31
77737;BME280;66903;59.926;30.404;2023-12-22T01:10:36;98075.81;;;24.95;29.00
77737;BME280;66903;59.926;30.404;2023-12-22T01:15:47;98071.72;;;24.96;29.21
77737;BME280;66903;59.926;30.404;2023-12-22T01:20:58;98059.50;;;24.96;29.10
77737;BME280;66903;59.926;30.404;2023-12-22T01:26:09;98039.44;;;24.92;29.19
77737;BME280;66903;59.926;30.404;2023-12-22T01:31:19;98037.47;;;24.96;29.26
77737;BME280;66903;59.926;30.404;2023-12-22T01:36:30;98045.22;;;24.96;29.17
77737;BME280;66903;59.926;30.404;2023-12-22T01:41:41;98034.19;;;24.94;29.52
77737;BME280;66903;59.926;30.404;2023-12-22T01:46:52;98037.47;;;24.96;29.24
77737;BME280;66903;59.926;30.404;2023-12-22T01:52:03;98023.56;;;24.95;29.33
77737;BME280;66903;59.926;30.404;2023-12-22T01:57:15;98028.47;;;24.94;29.09
77737;BME280;66903;59.926;30.404;2023-12-22T02:02:29;98008.47;;;24.94;29.35
77737;BME280;66903;59.926;30.404;2023-12-22T02:07:41;97998.25;;;24.93;29.20
77737;BME280;66903;59.926;30.404;2023-12-22T02:12:52;97994.19;;;24.94;29.34
77737;BME280;66903;59.926;30.404;2023-12-22T02:18:09;97987.72;;;24.97;29.33
77737;BME280;66903;59.926;30.404;2023-12-22T02:23:41;97977.94;;;24.98;29.04
77737;BME280;66903;59.926;30.404;2023-12-22T02:28:52;97960.81;;;24.98;29.17
77737;BME280;66903;59.926;30.404;2023-12-22T02:34:07;97957.94;;;24.98;29.38
77737;BME280;66903;59.926;30.404;2023-12-22T02:39:22;97944.03;;;24.97;29.12
77737;BME280;66903;59.926;30.404;2023-12-22T02:44:33;97946.06;;;24.96;29.13
77737;BME280;66903;59.926;30.404;2023-12-22T02:49:44;97932.25;;;24.98;29.07
77737;BME280;66903;59.926;30.404;2023-12-22T02:54:54;97926.53;;;24.98;29.08
77737;BME280;66903;59.926;30.404;2023-12-22T03:00:06;97920.81;;;24.98;28.72
77737;BME280;66903;59.926;30.404;2023-12-22T03:05:17;97921.25;;;25.00;28.80
77737;BME280;66903;59.926;30.404;2023-12-22T03:10:29;97920.06;;;25.01;28.79
77737;BME280;66903;59.926;30.404;2023-12-22T03:15:40;97910.69;;;25.01;28.75
77737;BME280;66903;59.926;30.404;2023-12-22T03:20:51;97901.28;;;25.00;28.69
77737;BME280;66903;59.926;30.404;2023-12-22T03:26:03;97906.97;;;25.00;28.54
77737;BME280;66903;59.926;30.404;2023-12-22T03:31:14;97887.38;;;24.99;28.67
77737;BME280;66903;59.926;30.404;2023-12-22T03:36:25;97887.75;;;24.97;28.69
77737;BME280;66903;59.926;30.404;2023-12-22T03:41:36;97886.94;;;24.97;28.58
77737;BME280;66903;59.926;30.404;2023-12-22T03:46:47;97876.34;;;24.97;28.70
77737;BME280;66903;59.926;30.404;2023-12-22T03:51:57;97868.59;;;24.98;28.83
77737;BME280;66903;59.926;30.404;2023-12-22T03:57:08;97855.13;;;24.98;28.63
77737;BME280;66903;59.926;30.404;2023-12-22T04:02:19;97860.03;;;24.98;28.68
77737;BME280;66903;59.926;30.404;2023-12-22T04:07:30;97842.00;;;24.94;28.71
77737;BME280;66903;59.926;30.404;2023-12-22T04:12:41;97862.44;;;24.96;28.41
77737;BME280;66903;59.926;30.404;2023-12-22T04:17:52;97845.31;;;24.96;28.75
77737;BME280;66903;59.926;30.404;2023-12-22T04:23:03;97834.34;;;24.98;28.59
77737;BME280;66903;59.926;30.404;2023-12-22T04:28:14;97833.50;;;24.97;28.91
77737;BME280;66903;59.926;30.404;2023-12-22T04:33:25;97822.84;;;24.94;29.34
77737;BME280;66903;59.926;30.404;2023-12-22T04:38:36;97817.56;;;24.96;29.24
77737;BME280;66903;59.926;30.404;2023-12-22T04:43:47;97814.44;;;24.82;29.31
77737;BME280;66903;59.926;30.404;2023-12-22T04:48:58;97808.03;;;24.66;29.13
77737;BME280;66903;59.926;30.404;2023-12-22T04:54:09;97805.84;;;24.60;29.70
77737;BME280;66903;59.926;30.404;2023-12-22T04:59:20;97798.13;;;24.60;29.16
77737;BME280;66903;59.926;30.404;2023-12-22T05:04:32;97814.09;;;24.65;29.10
77737;BME280;66903;59.926;30.404;2023-12-22T05:09:43;97801.03;;;24.64;28.93
77737;BME280;66903;59.926;30.404;2023-12-22T05:14:54;97782.34;;;24.66;29.15
77737;BME280;66903;59.926;30.404;2023-12-22T05:20:05;97783.75;;;24.76;29.52
77737;BME280;66903;59.926;30.404;2023-12-22T05:25:17;97774.13;;;24.84;29.24
77737;BME280;66903;59.926;30.404;2023-12-22T05:30:28;97776.25;;;24.90;29.15
77737;BME280;66903;59.926;30.404;2023-12-22T05:35:39;97761.59;;;24.92;28.97
77737;BME280;66903;59.926;30.404;2023-12-22T05:40:50;97766.09;;;24.93;29.04
77737;BME280;66903;59.926;30.404;2023-12-22T05:46:01;97764.00;;;24.90;28.90
77737;BME280;66903;59.926;30.404;2023-12-22T05:51:12;97757.84;;;24.88;28.77
77737;BME280;66903;59.926;30.404;2023-12-22T05:56:26;97759.00;;;24.83;29.08
77737;BME280;66903;59.926;30.404;2023-12-22T06:01:37;97746.81;;;24.86;28.82
77737;BME280;66903;59.926;30.404;2023-12-22T06:06:47;97751.00;;;24.92;28.66
77737;BME280;66903;59.926;30.404;2023-12-22T06:11:58;97739.97;;;24.91;28.44
77737;BME280;66903;59.926;30.404;2023-12-22T06:17:09;97743.25;;;24.93;28.64
77737;BME280;66903;59.926;30.404;2023-12-22T06:22:20;97736.34;;;24.94;28.54
77737;BME280;66903;59.926;30.404;2023-12-22T06:27:31;97740.03;;;24.94;28.49
77737;BME280;66903;59.926;30.404;2023-12-22T06:32:42;97750.22;;;24.95;28.17
77737;BME280;66903;59.926;30.404;2023-12-22T06:37:53;97741.22;;;24.93;28.26
77737;BME280;66903;59.926;30.404;2023-12-22T06:43:06;97734.25;;;24.91;28.10
77737;BME280;66903;59.926;30.404;2023-12-22T06:48:17;97744.47;;;24.92;28.59
77737;BME280;66903;59.926;30.404;2023-12-22T06:53:27;97733.09;;;24.95;28.63
77737;BME280;66903;59.926;30.404;2023-12-22T06:58:38;97739.25;;;24.97;28.36
77737;BME280;66903;59.926;30.404;2023-12-22T07:03:49;97731.59;;;25.01;28.28
77737;BME280;66903;59.926;30.404;2023-12-22T07:14:26;97723.44;;;25.03;28.45
77737;BME280;66903;59.926;30.404;2023-12-22T07:19:37;97711.19;;;25.03;28.31
77737;BME280;66903;59.926;30.404;2023-12-22T07:24:48;97696.53;;;25.04;28.74
77737;BME280;66903;59.926;30.404;2023-12-22T07:30:00;97701.03;;;25.05;28.85
77737;BME280;66903;59.926;30.404;2023-12-22T07:35:11;97698.44;;;24.97;28.61
77737;BME280;66903;59.926;30.404;2023-12-22T07:40:22;97691.38;;;24.87;28.52
77737;BME280;66903;59.926;30.404;2023-12-22T07:45:33;97695.25;;;24.76;28.27
77737;BME280;66903;59.926;30.404;2023-12-22T07:50:44;97693.63;;;24.75;28.58
77737;BME280;66903;59.926;30.404;2023-12-22T07:55:56;97685.56;;;24.80;29.11
77737;BME280;66903;59.926;30.404;2023-12-22T08:01:09;97683.94;;;24.83;28.75
77737;BME280;66903;59.926;30.404;2023-12-22T08:06:20;97700.44;;;24.70;28.78
77737;BME280;66903;59.926;30.404;2023-12-22T08:11:31;97690.44;;;24.57;29.66
77737;BME280;66903;59.926;30.404;2023-12-22T08:16:42;97680.53;;;24.51;29.57
77737;BME280;66903;59.926;30.404;2023-12-22T08:21:55;97682.31;;;24.59;30.47
77737;BME280;66903;59.926;30.404;2023-12-22T08:27:06;97671.09;;;24.70;30.38
77737;BME280;66903;59.926;30.404;2023-12-22T08:32:17;97683.94;;;24.83;30.28
77737;BME280;66903;59.926;30.404;2023-12-22T08:37:28;97684.06;;;24.90;31.18
77737;BME280;66903;59.926;30.404;2023-12-22T08:42:39;97679.63;;;24.92;31.65
77737;BME280;66903;59.926;30.404;2023-12-22T08:47:50;97687.25;;;24.85;32.24
77737;BME280;66903;59.926;30.404;2023-12-22T08:53:01;97668.16;;;24.66;31.37
77737;BME280;66903;59.926;30.404;2023-12-22T08:58:12;97665.00;;;24.49;31.29
77737;BME280;66903;59.926;30.404;2023-12-22T09:03:23;97657.25;;;24.49;31.51
77737;BME280;66903;59.926;30.404;2023-12-22T09:08:34;97662.69;;;24.58;31.66
77737;BME280;66903;59.926;30.404;2023-12-22T09:13:45;97651.03;;;24.66;31.55
77737;BME280;66903;59.926;30.404;2023-12-22T09:18:56;97637.25;;;24.72;31.04
77737;BME280;66903;59.926;30.404;2023-12-22T09:24:07;97634.06;;;24.73;30.95
77737;BME280;66903;59.926;30.404;2023-12-22T09:29:18;97634.72;;;24.67;31.13
77737;BME280;66903;59.926;30.404;2023-12-22T09:34:29;97628.28;;;24.70;31.38
77737;BME280;66903;59.926;30.404;2023-12-22T09:39:40;97620.88;;;24.69;30.87
77737;BME280;66903;59.926;30.404;2023-12-22T09:44:53;97613.03;;;24.62;31.43
77737;BME280;66903;59.926;30.404;2023-12-22T09:50:05;97606.31;;;24.74;31.21
77737;BME280;66903;59.926;30.404;2023-12-22T09:55:18;97602.91;;;24.91;31.33
77737;BME280;66903;59.926;30.404;2023-12-22T10:00:31;97593.22;;;24.99;30.96
77737;BME280;66903;59.926;30.404;2023-12-22T10:05:43;97593.38;;;25.09;31.14
77737;BME280;66903;59.926;30.404;2023-12-22T10:10:55;97582.81;;;25.13;30.98
77737;BME280;66903;59.926;30.404;2023-12-22T10:16:06;97582.88;;;25.17;31.36
77737;BME280;66903;59.926;30.404;2023-12-22T10:21:17;97582.44;;;25.15;31.96
77737;BME280;66903;59.926;30.404;2023-12-22T10:26:28;97575.44;;;25.12;32.71
77737;BME280;66903;59.926;30.404;2023-12-22T10:31:42;97568.84;;;25.05;32.22
77737;BME280;66903;59.926;30.404;2023-12-22T10:36:53;97571.44;;;24.87;32.26
77737;BME280;66903;59.926;30.404;2023-12-22T10:42:04;97554.91;;;24.74;32.50
77737;BME280;66903;59.926;30.404;2023-12-22T10:47:17;97560.69;;;24.77;32.21
77737;BME280;66903;59.926;30.404;2023-12-22T10:52:27;97549.56;;;24.98;31.41
77737;BME280;66903;59.926;30.404;2023-12-22T10:57:39;97552.38;;;24.95;32.54
77737;BME280;66903;59.926;30.404;2023-12-22T11:02:59;97556.16;;;25.02;32.10
77737;BME280;66903;59.926;30.404;2023-12-22T11:08:11;97555.78;;;25.07;32.10
77737;BME280;66903;59.926;30.404;2023-12-22T11:13:23;97545.28;;;25.15;31.91
77737;BME280;66903;59.926;30.404;2023-12-22T11:18:35;97553.59;;;25.27;31.88
77737;BME280;66903;59.926;30.404;2023-12-22T11:23:47;97551.72;;;25.38;32.11
77737;BME280;66903;59.926;30.404;2023-12-22T11:29:00;97556.75;;;25.48;32.06
77737;BME280;66903;59.926;30.404;2023-12-22T11:34:14;97557.25;;;25.57;31.69
77737;BME280;66903;59.926;30.404;2023-12-22T11:39:25;97556.50;;;25.64;31.28
77737;BME280;66903;59.926;30.404;2023-12-22T11:44:36;97554.88;;;25.63;31.39
77737;BME280;66903;59.926;30.404;2023-12-22T11:49:47;97550.34;;;25.62;31.29
77737;BME280;66903;59.926;30.404;2023-12-22T11:55:00;97548.72;;;25.61;31.43
77737;BME280;66903;59.926;30.404;2023-12-22T12:05:33;97545.13;;;25.71;31.58
77737;BME280;66903;59.926;30.404;2023-12-22T12:16:00;97557.50;;;25.82;31.36
77737;BME280;66903;59.926;30.404;2023-12-22T12:21:12;97547.97;;;25.67;31.29
77737;BME280;66903;59.926;30.404;2023-12-22T12:26:23;97544.19;;;25.60;31.40
77737;BME280;66903;59.926;30.404;2023-12-22T12:31:36;97547.81;;;25.53;31.05
77737;BME280;66903;59.926;30.404;2023-12-22T12:36:52;97547.22;;;25.37;31.26
77737;BME280;66903;59.926;30.404;2023-12-22T12:42:07;97562.97;;;25.24;31.62
77737;BME280;66903;59.926;30.404;2023-12-22T12:47:18;97554.34;;;25.21;31.87
77737;BME280;66903;59.926;30.404;2023-12-22T12:52:30;97559.66;;;25.22;31.49
77737;BME280;66903;59.926;30.404;2023-12-22T12:57:41;97566.63;;;25.25;31.74
77737;BME280;66903;59.926;30.404;2023-12-22T13:03:04;97555.63;;;25.27;31.36
77737;BME280;66903;59.926;30.404;2023-12-22T13:08:15;97563.00;;;25.28;31.00
77737;BME280;66903;59.926;30.404;2023-12-22T13:13:27;97559.66;;;25.22;31.03
77737;BME280;66903;59.926;30.404;2023-12-22T13:18:38;97558.84;;;25.22;31.27
77737;BME280;66903;59.926;30.404;2023-12-22T13:24:14;97559.75;;;25.29;31.15
77737;BME280;66903;59.926;30.404;2023-12-22T13:29:26;97555.63;;;25.27;31.69
77737;BME280;66903;59.926;30.404;2023-12-22T13:34:37;97554.34;;;25.21;31.37
77737;BME280;66903;59.926;30.404;2023-12-22T13:39:50;97555.88;;;25.14;31.49
77737;BME280;66903;59.926;30.404;2023-12-22T13:45:01;97568.44;;;25.06;31.24
77737;BME280;66903;59.926;30.404;2023-12-22T13:50:18;97562.09;;;24.90;31.23
77737;BME280;66903;59.926;30.404;2023-12-22T13:55:33;97550.75;;;24.68;31.29
77737;BME280;66903;59.926;30.404;2023-12-22T14:00:48;97548.47;;;24.54;31.55
77737;BME280;66903;59.926;30.404;2023-12-22T14:06:00;97567.16;;;24.48;31.31
77737;BME280;66903;59.926;30.404;2023-12-22T14:11:14;97563.41;;;24.44;31.42
77737;BME280;66903;59.926;30.404;2023-12-22T14:16:26;97562.13;;;24.38;31.65
77737;BME280;66903;59.926;30.404;2023-12-22T14:21:37;97567.38;;;24.36;31.89
77737;BME280;66903;59.926;30.404;2023-12-22T14:26:52;97569.78;;;24.34;31.03
77737;BME280;66903;59.926;30.404;2023-12-22T14:32:04;97575.00;;;24.29;31.14
77737;BME280;66903;59.926;30.404;2023-12-22T14:37:18;97574.94;;;24.25;31.30
77737;BME280;66903;59.926;30.404;2023-12-22T14:42:31;97582.72;;;24.28;31.55
77737;BME280;66903;59.926;30.404;2023-12-22T14:47:42;97572.03;;;24.48;31.77
77737;BME280;66903;59.926;30.404;2023-12-22T14:52:53;97567.38;;;24.62;31.24
77737;BME280;66903;59.926;30.404;2023-12-22T14:58:05;97573.66;;;24.71;31.61
77737;BME280;66903;59.926;30.404;2023-12-22T15:03:18;97574.50;;;24.75;31.21
77737;BME280;66903;59.926;30.404;2023-12-22T15:08:29;97572.09;;;24.77;30.91
77737;BME280;66903;59.926;30.404;2023-12-22T15:13:40;97583.56;;;24.81;31.23
77737;BME280;66903;59.926;30.404;2023-12-22T15:18:50;97591.38;;;24.84;31.33
77737;BME280;66903;59.926;30.404;2023-12-22T15:24:01;97599.16;;;24.87;31.52
77737;BME280;66903;59.926;30.404;2023-12-22T15:29:13;97597.00;;;24.77;30.99
77737;BME280;66903;59.926;30.404;2023-12-22T15:34:25;97583.28;;;24.63;31.33
77737;BME280;66903;59.926;30.404;2023-12-22T15:39:36;97592.13;;;24.55;30.74
77737;BME280;66903;59.926;30.404;2023-12-22T15:44:46;97601.84;;;24.50;30.97
77737;BME280;66903;59.926;30.404;2023-12-22T15:49:57;97603.38;;;24.44;31.00
77737;BME280;66903;59.926;30.404;2023-12-22T15:55:08;97605.38;;;24.44;31.44
77737;BME280;66903;59.926;30.404;2023-12-22T16:00:19;97588.66;;;24.42;31.96
77737;BME280;66903;59.926;30.404;2023-12-22T16:05:30;97594.34;;;24.42;32.55
77737;BME280;66903;59.926;30.404;2023-12-22T16:10:41;97594.34;;;24.42;32.37
77737;BME280;66903;59.926;30.404;2023-12-22T16:15:52;97588.97;;;24.37;32.42
77737;BME280;66903;59.926;30.404;2023-12-22T16:21:03;97603.69;;;24.39;32.39
77737;BME280;66903;59.926;30.404;2023-12-22T16:26:18;97604.69;;;24.50;32.63
77737;BME280;66903;59.926;30.404;2023-12-22T16:31:30;97612.97;;;24.59;32.58
77737;BME280;66903;59.926;30.404;2023-12-22T16:36:44;97606.16;;;24.67;32.61
77737;BME280;66903;59.926;30.404;2023-12-22T16:41:56;97617.66;;;24.70;32.16
77737;BME280;66903;59.926;30.404;2023-12-22T16:47:09;97612.00;;;24.74;32.70
77737;BME280;66903;59.926;30.404;2023-12-22T16:52:21;97616.94;;;24.73;32.67
77737;BME280;66903;59.926;30.404;2023-12-22T16:57:32;97616.16;;;24.76;32.40
77737;BME280;66903;59.926;30.404;2023-12-22T17:02:46;97619.44;;;24.78;32.16
77737;BME280;66903;59.926;30.404;2023-12-22T17:07:57;97619.06;;;24.80;32.37
77737;BME280;66903;59.926;30.404;2023-12-22T17:13:09;97632.53;;;24.83;32.23
77737;BME280;66903;59.926;30.404;2023-12-22T17:18:20;97630.97;;;24.85;32.24
77737;BME280;66903;59.926;30.404;2023-12-22T17:23:31;97632.59;;;24.86;32.08
77737;BME280;66903;59.926;30.404;2023-12-22T17:28:42;97619.16;;;24.87;31.95
77737;BME280;66903;59.926;30.404;2023-12-22T17:33:53;97624.09;;;24.90;31.89
77737;BME280;66903;59.926;30.404;2023-12-22T17:39:04;97631.47;;;24.91;31.78
77737;BME280;66903;59.926;30.404;2023-12-22T17:44:15;97622.50;;;24.92;31.50
77737;BME280;66903;59.926;30.404;2023-12-22T17:49:26;97619.66;;;24.92;31.52
77737;BME280;66903;59.926;30.404;2023-12-22T17:54:37;97617.19;;;24.91;32.30
77737;BME280;66903;59.926;30.404;2023-12-22T17:59:48;97621.28;;;24.93;32.18
77737;BME280;66903;59.926;30.404;2023-12-22T18:04:58;97624.19;;;24.97;32.08
77737;BME280;66903;59.926;30.404;2023-12-22T18:10:10;97614.78;;;24.96;31.38
77737;BME280;66903;59.926;30.404;2023-12-22T18:15:20;97624.09;;;24.90;31.77
77737;BME280;66903;59.926;30.404;2023-12-22T18:20:31;97620.44;;;24.93;31.76
77737;BME280;66903;59.926;30.404;2023-12-22T18:25:42;97618.03;;;24.95;31.85
77737;BME280;66903;59.926;30.404;2023-12-22T18:30:53;97623.75;;;24.95;31.53
77737;BME280;66903;59.926;30.404;2023-12-22T18:36:04;97619.69;;;24.96;31.64
77737;BME280;66903;59.926;30.404;2023-12-22T18:41:15;97629.06;;;24.96;31.39
77737;BME280;66903;59.926;30.404;2023-12-22T18:46:26;97624.63;;;24.99;31.30
77737;BME280;66903;59.926;30.404;2023-12-22T18:51:39;97633.59;;;24.97;31.07
77737;BME280;66903;59.926;30.404;2023-12-22T18:56:51;97634.44;;;24.98;32.61
77737;BME280;66903;59.926;30.404;2023-12-22T19:02:02;97646.25;;;25.00;32.35
77737;BME280;66903;59.926;30.404;2023-12-22T19:07:13;97643.84;;;25.02;32.10
77737;BME280;66903;59.926;30.404;2023-12-22T19:12:24;97640.25;;;25.05;32.72
77737;BME280;66903;59.926;30.404;2023-12-22T19:17:34;97650.06;;;25.07;34.01
77737;BME280;66903;59.926;30.404;2023-12-22T19:22:47;97652.50;;;25.09;33.77
77737;BME280;66903;59.926;30.404;2023-12-22T19:27:58;97646.41;;;25.10;33.70
77737;BME280;66903;59.926;30.404;2023-12-22T19:33:11;97662.41;;;25.15;34.16
77737;BME280;66903;59.926;30.404;2023-12-22T19:38:22;97664.59;;;25.25;33.56
77737;BME280;66903;59.926;30.404;2023-12-22T19:43:33;97670.75;;;25.27;33.03
77737;BME280;66903;59.926;30.404;2023-12-22T19:48:44;97655.22;;;25.28;32.46
77737;BME280;66903;59.926;30.404;2023-12-22T19:53:55;97673.16;;;25.25;32.69
77737;BME280;66903;59.926;30.404;2023-12-22T19:59:06;97667.88;;;25.27;32.51
77737;BME280;66903;59.926;30.404;2023-12-22T20:04:18;97662.56;;;25.26;32.77
77737;BME280;66903;59.926;30.404;2023-12-22T20:09:29;97681.81;;;25.32;32.60
77737;BME280;66903;59.926;30.404;2023-12-22T20:14:41;97678.56;;;25.34;32.54
77737;BME280;66903;59.926;30.404;2023-12-22T20:19:52;97689.63;;;25.35;32.46
77737;BME280;66903;59.926;30.404;2023-12-22T20:25:03;97688.81;;;25.35;32.25
77737;BME280;66903;59.926;30.404;2023-12-22T20:30:14;97686.44;;;25.37;31.98
77737;BME280;66903;59.926;30.404;2023-12-22T20:35:25;97692.16;;;25.37;31.91
77737;BME280;66903;59.926;30.404;2023-12-22T20:40:36;97696.63;;;25.38;31.38
77737;BME280;66903;59.926;30.404;2023-12-22T20:45:47;97689.28;;;25.37;31.69
77737;BME280;66903;59.926;30.404;2023-12-22T20:51:03;97703.63;;;25.40;31.62
77737;BME280;66903;59.926;30.404;2023-12-22T20:56:17;97701.56;;;25.41;31.34
77737;BME280;66903;59.926;30.404;2023-12-22T21:01:29;97702.34;;;25.38;31.10
77737;BME280;66903;59.926;30.404;2023-12-22T21:06:40;97705.22;;;25.38;30.90
77737;BME280;66903;59.926;30.404;2023-12-22T21:11:51;97704.28;;;25.34;31.08
77737;BME280;66903;59.926;30.404;2023-12-22T21:17:01;97711.97;;;25.26;31.61
77737;BME280;66903;59.926;30.404;2023-12-22T21:22:12;97711.53;;;25.24;31.62
77737;BME280;66903;59.926;30.404;2023-12-22T21:27:23;97718.44;;;25.23;31.95
77737;BME280;66903;59.926;30.404;2023-12-22T21:32:34;97711.09;;;25.22;31.81
77737;BME280;66903;59.926;30.404;2023-12-22T21:37:48;97702.06;;;25.20;32.31
77737;BME280;66903;59.926;30.404;2023-12-22T21:43:00;97709.81;;;25.19;32.04
77737;BME280;66903;59.926;30.404;2023-12-22T21:48:11;97710.69;;;25.24;32.08
77737;BME280;66903;59.926;30.404;2023-12-22T21:53:22;97714.94;;;25.33;31.90
77737;BME280;66903;59.926;30.404;2023-12-22T21:58:33;97709.75;;;25.42;32.27
77737;BME280;66903;59.926;30.404;2023-12-22T22:03:44;97721.00;;;25.32;29.59
77737;BME280;66903;59.926;30.404;2023-12-22T22:08:55;97727.66;;;22.77;29.59
77737;BME280;66903;59.926;30.404;2023-12-22T22:14:06;97711.63;;;20.51;34.88
77737;BME280;66903;59.926;30.404;2023-12-22T22:19:17;97720.81;;;20.97;35.22
77737;BME280;66903;59.926;30.404;2023-12-22T22:24:27;97715.69;;;21.93;34.45
77737;BME280;66903;59.926;30.404;2023-12-22T22:29:40;97727.47;;;22.70;33.83
77737;BME280;66903;59.926;30.404;2023-12-22T22:34:53;97713.63;;;23.19;33.01
77737;BME280;66903;59.926;30.404;2023-12-22T22:40:05;97717.38;;;23.57;32.78
77737;BME280;66903;59.926;30.404;2023-12-22T22:45:16;97707.31;;;23.82;32.04
77737;BME280;66903;59.926;30.404;2023-12-22T22:50:27;97711.72;;;23.99;32.42
77737;BME280;66903;59.926;30.404;2023-12-22T22:55:38;97712.03;;;24.13;32.20
77737;BME280;66903;59.926;30.404;2023-12-22T23:00:49;97716.66;;;24.21;32.05
77737;BME280;66903;59.926;30.404;2023-12-22T23:06:03;97722.56;;;24.32;31.84
77737;BME280;66903;59.926;30.404;2023-12-22T23:11:14;97708.81;;;24.37;31.80
77737;BME280;66903;59.926;30.404;2023-12-22T23:16:25;97702.72;;;24.39;31.31
77737;BME280;66903;59.926;30.404;2023-12-22T23:21:36;97716.72;;;24.47;31.65
77737;BME280;66903;59.926;30.404;2023-12-22T23:26:47;97708.63;;;24.49;31.58
77737;BME280;66903;59.926;30.404;2023-12-22T23:31:58;97716.06;;;24.54;31.47
77737;BME280;66903;59.926;30.404;2023-12-22T23:37:09;97719.41;;;24.59;31.63
77737;BME280;66903;59.926;30.404;2023-12-22T23:42:19;97705.56;;;24.61;31.52
77737;BME280;66903;59.926;30.404;2023-12-22T23:47:30;97706.41;;;24.62;31.47
77737;BME280;66903;59.926;30.404;2023-12-22T23:52:43;97718.25;;;24.64;31.22
77737;BME280;66903;59.926;30.404;2023-12-22T23:57:53;97723.13;;;24.63;31.44
